Time;durP1;ratioP1;P1;durP2;ratioP2;P2;SDS_P1;SDS_P2;PMS_P1;PMS_P2;Temp;Humidity;BMP_temperature;BMP_pressure;BME280_temperature;BME280_humidity;BME280_pressure;Samples;Min_cycle;Max_cycle;Signal;HPM_P1;HPM_P2
2022/12/26 00:01:31;;;;;;;100.88;21.60;;;8.60;99.90;;;;;;5050582;28;20526;-67
2022/12/26 00:03:57;;;;;;;128.25;21.92;;;8.60;99.90;;;;;;5070041;28;20048;-68
2022/12/26 00:06:26;;;;;;;133.70;22.63;;;8.60;99.90;;;;;;5069572;28;20041;-67
2022/12/26 00:08:52;;;;;;;131.25;22.67;;;8.60;99.90;;;;;;5051075;28;20106;-67
2022/12/26 00:11:18;;;;;;;112.85;22.20;;;8.60;99.90;;;;;;5052116;28;20043;-67
2022/12/26 00:13:43;;;;;;;117.13;21.17;;;8.60;99.90;;;;;;5065368;28;20036;-67
2022/12/26 00:16:14;;;;;;;107.50;22.58;;;8.60;99.90;;;;;;5051268;28;20044;-67
2022/12/26 00:18:41;;;;;;;107.43;21.17;;;8.60;99.90;;;;;;5051420;28;20044;-67
2022/12/26 00:21:08;;;;;;;124.88;23.55;;;8.60;99.90;;;;;;5062320;28;20694;-68
2022/12/26 00:23:35;;;;;;;102.85;23.33;;;8.60;99.90;;;;;;5063461;28;20239;-67
2022/12/26 00:26:06;;;;;;;127.13;22.65;;;8.60;99.90;;;;;;5059121;28;20051;-67
2022/12/26 00:28:32;;;;;;;126.18;23.15;;;8.60;99.90;;;;;;5059489;28;20090;-67
2022/12/26 00:30:58;;;;;;;125.03;23.17;;;8.60;99.90;;;;;;5060027;28;20045;-67
2022/12/26 00:33:23;;;;;;;99.95;21.90;;;8.60;99.90;;;;;;5059724;28;20036;-68
2022/12/26 00:35:49;;;;;;;98.22;21.80;;;8.60;99.90;;;;;;5066337;28;20055;-68
2022/12/26 00:38:15;;;;;;;112.88;22.20;;;8.60;99.90;;;;;;5083224;28;20826;-67
2022/12/26 00:40:42;;;;;;;116.70;22.25;;;8.60;99.90;;;;;;5062974;28;20063;-67
2022/12/26 00:43:11;;;;;;;112.28;21.75;;;8.60;99.90;;;;;;5041163;28;20627;-67
2022/12/26 00:45:36;;;;;;;130.18;22.40;;;8.60;99.90;;;;;;5042851;28;20401;-67
2022/12/26 00:48:02;;;;;;;101.53;21.83;;;8.60;99.90;;;;;;5059859;28;20048;-67
2022/12/26 00:50:28;;;;;;;134.10;21.92;;;8.60;99.90;;;;;;5063720;28;20047;-67
2022/12/26 00:52:55;;;;;;;140.95;23.08;;;8.60;99.90;;;;;;5050146;28;20139;-67
2022/12/26 00:55:21;;;;;;;124.22;22.10;;;8.60;99.90;;;;;;5058569;28;20040;-68
2022/12/26 00:57:46;;;;;;;107.38;21.55;;;8.60;99.90;;;;;;5079040;28;20378;-68
2022/12/26 01:00:13;;;;;;;107.80;20.45;;;8.60;99.90;;;;;;5057766;28;20047;-67
2022/12/26 01:02:38;;;;;;;122.90;23.95;;;8.60;99.90;;;;;;5060306;28;20037;-68
2022/12/26 01:05:09;;;;;;;104.85;21.80;;;8.60;99.90;;;;;;5056647;28;20047;-68
2022/12/26 01:07:36;;;;;;;135.60;24.45;;;8.60;99.90;;;;;;5039263;28;20045;-67
2022/12/26 01:10:06;;;;;;;101.30;21.70;;;8.50;99.90;;;;;;5056685;28;20041;-67
2022/12/26 01:12:32;;;;;;;114.25;22.83;;;8.60;99.90;;;;;;5042309;28;20036;-68
2022/12/26 01:14:58;;;;;;;109.63;24.08;;;8.60;99.90;;;;;;5055136;28;20765;-67
2022/12/26 01:17:26;;;;;;;89.93;19.77;;;8.60;99.90;;;;;;5072075;28;20037;-67
2022/12/26 01:19:52;;;;;;;110.45;22.02;;;8.50;99.90;;;;;;5055899;28;20045;-67
2022/12/26 01:22:18;;;;;;;101.20;23.42;;;8.60;99.90;;;;;;5070469;28;22069;-68
2022/12/26 01:24:44;;;;;;;114.18;22.70;;;8.60;99.90;;;;;;5043377;28;20039;-67
2022/12/26 01:27:09;;;;;;;97.32;20.60;;;8.50;99.90;;;;;;5056833;28;20040;-67
2022/12/26 01:29:35;;;;;;;111.50;23.90;;;8.50;99.90;;;;;;5042516;28;20260;-67
2022/12/26 01:32:00;;;;;;;112.82;23.77;;;8.60;99.90;;;;;;5054992;28;20115;-68
2022/12/26 01:34:26;;;;;;;122.13;24.20;;;8.60;99.90;;;;;;5042883;28;20090;-67
2022/12/26 01:36:53;;;;;;;109.70;23.38;;;8.60;99.90;;;;;;5043779;28;20045;-67
2022/12/26 01:39:19;;;;;;;114.90;24.63;;;8.60;99.90;;;;;;5062386;28;20086;-67
2022/12/26 01:41:45;;;;;;;120.68;24.38;;;8.60;99.90;;;;;;5057712;28;20070;-68
2022/12/26 01:44:48;;;;;;;108.88;24.10;;;8.60;99.90;;;;;;5055984;28;20040;-67
2022/12/26 01:47:14;;;;;;;100.45;22.30;;;8.60;99.90;;;;;;5054626;28;20040;-67
2022/12/26 01:49:43;;;;;;;91.30;22.27;;;8.60;99.90;;;;;;5057831;28;20373;-67
2022/12/26 01:52:18;;;;;;;95.18;22.38;;;8.60;99.90;;;;;;5073107;28;20756;-68
2022/12/26 01:54:48;;;;;;;91.28;21.23;;;8.60;99.90;;;;;;5058238;28;20068;-68
2022/12/26 01:57:27;;;;;;;92.60;21.27;;;8.60;99.90;;;;;;5045118;28;20040;-67
2022/12/26 01:59:55;;;;;;;90.45;20.40;;;8.60;99.90;;;;;;5073591;28;20058;-67
2022/12/26 02:02:22;;;;;;;79.30;18.83;;;8.60;99.90;;;;;;5063870;28;20079;-68
2022/12/26 02:07:36;;;;;;;77.88;19.17;;;8.60;99.90;;;;;;5061445;28;20060;-68
2022/12/26 02:10:03;;;;;;;79.18;17.80;;;8.60;99.90;;;;;;5061386;28;20131;-67
2022/12/26 02:12:32;;;;;;;83.28;18.30;;;8.60;99.90;;;;;;5061113;28;20071;-68
2022/12/26 02:14:59;;;;;;;76.80;18.52;;;8.60;99.90;;;;;;5064551;28;20079;-67
2022/12/26 02:17:26;;;;;;;71.28;17.80;;;8.60;99.90;;;;;;5043719;28;20060;-68
2022/12/26 02:19:58;;;;;;;75.50;18.77;;;8.60;99.90;;;;;;5046164;28;20044;-68
2022/12/26 02:23:01;;;;;;;63.05;16.77;;;8.60;99.90;;;;;;5060582;28;20051;-67
2022/12/26 02:25:41;;;;;;;73.10;19.25;;;8.60;99.90;;;;;;5048399;28;20605;-67
2022/12/26 02:28:27;;;;;;;60.00;16.85;;;8.60;99.90;;;;;;5057362;28;20499;-67
2022/12/26 02:31:00;;;;;;;65.75;17.80;;;8.60;99.90;;;;;;5056196;28;20041;-68
2022/12/26 02:33:50;;;;;;;61.55;17.67;;;8.60;99.90;;;;;;5054191;28;20036;-68
2022/12/26 02:36:20;;;;;;;59.25;18.20;;;8.60;99.90;;;;;;5071200;28;20036;-68
2022/12/26 02:39:00;;;;;;;59.55;16.65;;;8.60;99.90;;;;;;5068638;28;20070;-68
2022/12/26 02:42:01;;;;;;;58.25;17.98;;;8.70;99.90;;;;;;5053793;28;20420;-68
2022/12/26 02:47:59;;;;;;;52.40;16.63;;;8.70;99.90;;;;;;5069977;28;20048;-67
2022/12/26 03:14:23;;;;;;;56.65;22.55;;;8.80;99.90;;;;;;5053023;28;20045;-68
2022/12/26 03:19:56;;;;;;;64.93;23.70;;;8.90;99.90;;;;;;5053655;28;20056;-67
2022/12/26 03:22:32;;;;;;;69.72;24.40;;;8.90;99.90;;;;;;5067956;28;20041;-68
2022/12/26 03:27:46;;;;;;;60.95;23.77;;;8.90;99.90;;;;;;5049126;28;20697;-68
2022/12/26 03:32:57;;;;;;;69.55;25.88;;;8.90;99.90;;;;;;5053058;28;20044;-67
2022/12/26 03:35:24;;;;;;;71.28;25.73;;;8.90;99.90;;;;;;5051771;28;21236;-67
2022/12/26 03:37:57;;;;;;;70.78;25.17;;;9.00;99.90;;;;;;5053234;28;20545;-68
2022/12/26 04:44:14;;;;;;;50.97;22.40;;;9.10;99.90;;;;;;5055696;28;20063;-67
2022/12/26 04:46:47;;;;;;;49.38;22.52;;;9.10;99.90;;;;;;5056613;28;20036;-67
2022/12/26 04:52:01;;;;;;;43.53;19.27;;;9.10;99.90;;;;;;5074358;28;20049;-68
2022/12/26 04:54:27;;;;;;;52.65;24.20;;;9.10;99.90;;;;;;5070742;28;20404;-68
2022/12/26 04:56:53;;;;;;;53.25;24.85;;;9.00;99.90;;;;;;5040114;28;20044;-68
2022/12/26 04:59:19;;;;;;;47.47;22.80;;;9.00;99.90;;;;;;5054444;28;20081;-67
2022/12/26 05:10:03;;;;;;;44.80;21.77;;;9.00;99.90;;;;;;5070443;28;20076;-67
2022/12/26 05:12:29;;;;;;;43.88;21.02;;;9.00;99.90;;;;;;5056011;28;20040;-67
2022/12/26 05:14:54;;;;;;;39.38;20.45;;;9.00;99.90;;;;;;5068687;28;20048;-67
2022/12/26 05:31:04;;;;;;;42.03;21.38;;;8.90;99.90;;;;;;5067178;28;20041;-67
2022/12/26 05:36:16;;;;;;;38.45;21.20;;;8.90;99.90;;;;;;5067195;28;20076;-67
2022/12/26 05:38:41;;;;;;;45.45;22.73;;;8.90;99.90;;;;;;5059621;28;20054;-67
2022/12/26 05:41:07;;;;;;;44.58;23.27;;;8.90;99.90;;;;;;5041975;28;20044;-67
2022/12/26 05:43:33;;;;;;;39.72;21.70;;;8.90;99.90;;;;;;5051667;28;20119;-68
2022/12/26 05:45:58;;;;;;;46.20;25.02;;;8.90;99.90;;;;;;5055691;28;20421;-67
2022/12/26 05:48:24;;;;;;;46.00;23.92;;;8.90;99.90;;;;;;5056632;28;20138;-68
2022/12/26 05:50:50;;;;;;;42.28;22.52;;;8.90;99.90;;;;;;5041627;28;20044;-68
2022/12/26 05:53:15;;;;;;;44.72;22.58;;;8.90;99.90;;;;;;5055030;28;20036;-68
2022/12/26 05:55:41;;;;;;;44.10;24.50;;;8.90;99.90;;;;;;5042503;28;20309;-67
2022/12/26 05:58:06;;;;;;;40.85;21.92;;;8.90;99.90;;;;;;5064545;28;20052;-67
2022/12/26 06:00:32;;;;;;;39.08;21.45;;;8.80;99.90;;;;;;5063703;28;20040;-67
2022/12/26 06:02:59;;;;;;;41.80;24.02;;;8.90;99.90;;;;;;5063772;28;20080;-68
2022/12/26 06:05:25;;;;;;;36.88;20.08;;;8.90;99.90;;;;;;5063209;28;20128;-67
2022/12/26 06:07:51;;;;;;;40.47;23.23;;;8.90;99.90;;;;;;5048391;28;20147;-67
2022/12/26 06:10:17;;;;;;;40.03;22.48;;;8.80;99.90;;;;;;5060136;28;20072;-67
2022/12/26 06:12:43;;;;;;;37.75;22.40;;;8.90;99.90;;;;;;5048225;28;20148;-68
2022/12/26 06:15:09;;;;;;;39.38;22.67;;;8.90;99.90;;;;;;5047499;28;20044;-67
2022/12/26 06:17:35;;;;;;;39.85;23.25;;;8.90;99.90;;;;;;5063896;28;20054;-67
2022/12/26 06:20:00;;;;;;;38.28;21.05;;;8.90;99.90;;;;;;5077831;28;20036;-67
2022/12/26 06:22:28;;;;;;;39.90;23.83;;;8.90;99.90;;;;;;5047375;28;20119;-67
2022/12/26 06:24:54;;;;;;;37.75;21.55;;;8.90;99.90;;;;;;5062743;28;20063;-67
2022/12/26 06:27:19;;;;;;;36.10;21.00;;;8.90;99.90;;;;;;5039409;28;20115;-68
2022/12/26 06:29:45;;;;;;;34.35;20.55;;;9.00;99.90;;;;;;5056909;28;20396;-67
2022/12/26 06:32:11;;;;;;;33.65;18.58;;;8.90;99.90;;;;;;5053809;28;20472;-67
2022/12/26 06:34:36;;;;;;;36.70;21.63;;;8.90;99.90;;;;;;5052567;28;20533;-67
2022/12/26 06:37:02;;;;;;;33.88;20.17;;;8.90;99.90;;;;;;5069351;28;20032;-68
2022/12/26 06:39:28;;;;;;;34.53;21.27;;;8.90;99.90;;;;;;5055647;28;20037;-67
2022/12/26 06:41:53;;;;;;;35.22;20.10;;;8.90;99.90;;;;;;5035380;28;20135;-67
2022/12/26 06:44:19;;;;;;;32.88;19.05;;;8.90;99.90;;;;;;5037436;28;20055;-67
2022/12/26 06:46:45;;;;;;;31.13;18.58;;;8.90;99.90;;;;;;5038872;28;20045;-67
2022/12/26 06:49:10;;;;;;;32.97;19.20;;;8.90;99.90;;;;;;5057263;28;20484;-67
2022/12/26 06:51:36;;;;;;;33.30;18.50;;;8.90;99.90;;;;;;5061775;28;20036;-67
2022/12/26 06:54:01;;;;;;;29.17;18.67;;;8.90;99.90;;;;;;5064060;28;20496;-68
2022/12/26 06:56:28;;;;;;;28.95;19.52;;;8.90;99.90;;;;;;5046389;28;20045;-68
2022/12/26 06:58:59;;;;;;;32.22;17.73;;;9.00;99.90;;;;;;5057872;28;20052;-67
2022/12/26 07:01:26;;;;;;;28.52;16.50;;;9.00;99.90;;;;;;5054788;28;20094;-67
2022/12/26 07:03:53;;;;;;;27.40;16.80;;;9.10;99.90;;;;;;5052795;28;20083;-67
2022/12/26 07:06:28;;;;;;;28.55;17.15;;;9.10;99.90;;;;;;5037436;28;20135;-67
2022/12/26 07:08:57;;;;;;;29.73;16.73;;;9.10;99.90;;;;;;5052951;28;20040;-67
2022/12/26 07:11:26;;;;;;;24.08;15.38;;;9.20;99.90;;;;;;5052050;28;20065;-67
2022/12/26 07:13:53;;;;;;;20.73;12.48;;;9.20;99.90;;;;;;5052145;28;20044;-68
2022/12/26 07:16:19;;;;;;;25.50;15.07;;;9.20;99.90;;;;;;5053503;28;20043;-67
2022/12/26 07:18:44;;;;;;;26.77;14.68;;;9.10;99.90;;;;;;5068069;28;20044;-68
2022/12/26 07:21:14;;;;;;;24.73;13.25;;;9.10;99.90;;;;;;5032646;28;20040;-67
2022/12/26 07:23:40;;;;;;;22.65;12.30;;;9.10;99.90;;;;;;5036647;28;20047;-68
2022/12/26 07:26:06;;;;;;;20.17;12.75;;;9.20;99.90;;;;;;5056811;28;20051;-68
2022/12/26 07:28:32;;;;;;;19.83;10.75;;;9.20;99.90;;;;;;5053458;28;20051;-68
2022/12/26 07:30:59;;;;;;;20.50;11.70;;;9.10;99.90;;;;;;5053916;28;20070;-67
2022/12/26 07:33:26;;;;;;;23.63;12.65;;;9.10;99.90;;;;;;5055236;28;20044;-67
2022/12/26 07:35:52;;;;;;;22.65;11.85;;;9.10;99.90;;;;;;5052867;28;20072;-68
2022/12/26 07:38:17;;;;;;;17.75;10.77;;;9.10;99.90;;;;;;5038616;28;20132;-67
2022/12/26 07:40:43;;;;;;;20.73;11.85;;;9.00;99.90;;;;;;5059259;28;20184;-67
2022/12/26 07:43:09;;;;;;;17.73;10.30;;;9.00;99.90;;;;;;5038570;28;20036;-68
2022/12/26 07:45:35;;;;;;;19.67;12.20;;;8.90;99.90;;;;;;5036673;28;20044;-68
2022/12/26 07:48:00;;;;;;;21.38;11.18;;;8.90;99.90;;;;;;5059702;28;20043;-68
2022/12/26 07:50:26;;;;;;;23.33;11.20;;;8.90;99.90;;;;;;5058261;28;20089;-68
2022/12/26 07:52:53;;;;;;;18.92;10.18;;;8.90;99.90;;;;;;5044686;28;20040;-68
2022/12/26 07:55:18;;;;;;;19.67;10.55;;;8.90;99.90;;;;;;5044698;28;20044;-68
2022/12/26 07:57:48;;;;;;;17.48;9.38;;;9.00;99.90;;;;;;5060788;28;20472;-67
2022/12/26 08:00:14;;;;;;;19.55;9.65;;;9.00;99.90;;;;;;5060941;28;20048;-68
2022/12/26 08:02:39;;;;;;;16.30;10.60;;;9.00;99.90;;;;;;5059025;28;20036;-68
2022/12/26 08:05:05;;;;;;;22.90;9.70;;;9.10;99.90;;;;;;5057923;28;20052;-68
2022/12/26 08:07:30;;;;;;;15.60;9.73;;;9.10;99.90;;;;;;5061532;28;20064;-67
2022/12/26 08:09:56;;;;;;;17.23;10.32;;;9.10;99.90;;;;;;5076934;28;20041;-68
2022/12/26 08:12:23;;;;;;;18.75;10.27;;;9.10;99.90;;;;;;5061748;28;20467;-67
2022/12/26 08:14:49;;;;;;;18.80;10.15;;;9.10;99.90;;;;;;5072919;28;20055;-68
2022/12/26 08:17:15;;;;;;;16.98;9.63;;;9.10;99.90;;;;;;5046259;28;20082;-68
2022/12/26 08:19:41;;;;;;;20.13;9.45;;;9.20;99.90;;;;;;5038884;28;20045;-68
2022/12/26 08:22:07;;;;;;;15.48;9.50;;;9.20;99.90;;;;;;5044522;28;20474;-68
2022/12/26 08:24:32;;;;;;;16.73;9.65;;;9.20;99.90;;;;;;5049317;28;20565;-68
2022/12/26 08:26:58;;;;;;;18.70;8.65;;;9.20;99.90;;;;;;5055614;28;20044;-68
2022/12/26 08:29:23;;;;;;;17.13;8.38;;;9.20;99.90;;;;;;5059949;28;20033;-68
2022/12/26 08:31:49;;;;;;;15.10;8.05;;;9.20;99.90;;;;;;5057922;28;20161;-68
2022/12/26 08:34:15;;;;;;;14.68;8.85;;;9.30;99.90;;;;;;5056759;28;20040;-68
2022/12/26 08:36:40;;;;;;;17.45;8.55;;;9.20;99.90;;;;;;5057033;28;20863;-68
2022/12/26 08:39:06;;;;;;;15.10;8.73;;;9.30;99.90;;;;;;5055909;28;20052;-68
2022/12/26 08:41:32;;;;;;;14.45;8.27;;;9.30;99.90;;;;;;5058202;28;20519;-68
2022/12/26 08:43:57;;;;;;;15.35;7.88;;;9.30;99.90;;;;;;5055770;28;20117;-68
2022/12/26 08:46:23;;;;;;;16.17;8.48;;;9.30;99.90;;;;;;5039964;28;20072;-68
2022/12/26 08:48:50;;;;;;;13.43;7.05;;;9.30;99.90;;;;;;5037686;28;20051;-68
2022/12/26 08:51:21;;;;;;;16.92;8.95;;;9.30;99.90;;;;;;5056529;28;20074;-68
2022/12/26 08:53:50;;;;;;;18.40;9.65;;;9.30;99.90;;;;;;5071922;28;20040;-68
2022/12/26 08:56:19;;;;;;;16.90;9.73;;;9.20;99.90;;;;;;5050034;28;20051;-67
2022/12/26 08:58:45;;;;;;;16.30;9.93;;;9.30;99.90;;;;;;5071388;28;20044;-68
2022/12/26 09:01:20;;;;;;;17.63;10.40;;;9.30;99.90;;;;;;5051539;28;20113;-69
2022/12/26 09:03:46;;;;;;;20.80;12.10;;;9.20;99.90;;;;;;5070780;28;20040;-67
2022/12/26 09:06:13;;;;;;;21.77;11.15;;;9.20;99.90;;;;;;5054736;28;20055;-67
2022/12/26 09:08:40;;;;;;;19.17;10.77;;;9.10;99.90;;;;;;5072240;28;20039;-67
2022/12/26 09:11:26;;;;;;;18.48;11.23;;;9.10;99.90;;;;;;5051824;28;20045;-67
2022/12/26 09:13:52;;;;;;;15.93;9.80;;;9.10;99.90;;;;;;5039603;28;20044;-68
2022/12/26 09:16:21;;;;;;;20.60;11.32;;;9.10;99.90;;;;;;5051906;28;20045;-68
2022/12/26 09:18:47;;;;;;;18.55;10.43;;;9.10;99.90;;;;;;5053141;28;20055;-67
2022/12/26 09:21:14;;;;;;;19.92;11.05;;;9.10;99.90;;;;;;5055826;28;20032;-67
2022/12/26 09:23:41;;;;;;;16.20;10.60;;;9.10;99.90;;;;;;5054823;28;20171;-68
2022/12/26 09:26:18;;;;;;;12.85;7.95;;;9.20;99.90;;;;;;5039817;28;20131;-67
2022/12/26 09:28:45;;;;;;;15.93;9.23;;;9.20;99.90;;;;;;5054597;28;20040;-68
2022/12/26 09:31:17;;;;;;;11.88;6.95;;;9.20;99.90;;;;;;5055391;28;20053;-70
2022/12/26 09:33:43;;;;;;;12.20;7.00;;;9.20;99.90;;;;;;5041310;28;20040;-68
2022/12/26 09:36:11;;;;;;;15.20;7.45;;;9.30;99.90;;;;;;5039637;28;20925;-68
2022/12/26 09:38:37;;;;;;;14.80;7.50;;;9.20;99.90;;;;;;5035437;28;20127;-68
2022/12/26 09:41:24;;;;;;;18.23;8.02;;;9.20;99.90;;;;;;5038144;28;20129;-68
2022/12/26 09:44:02;;;;;;;13.82;5.90;;;9.30;99.90;;;;;;5074436;28;20062;-68
2022/12/26 09:46:36;;;;;;;12.10;4.30;;;9.20;99.90;;;;;;5057039;28;20059;-68
2022/12/26 09:49:07;;;;;;;15.18;3.38;;;9.10;99.90;;;;;;5071391;28;20040;-68
2022/12/26 09:51:34;;;;;;;11.88;2.72;;;8.90;99.90;;;;;;5054650;28;20043;-68
2022/12/26 09:54:03;;;;;;;9.07;2.83;;;8.70;99.90;;;;;;5056741;28;20358;-68
2022/12/26 09:56:31;;;;;;;11.95;2.70;;;8.40;99.90;;;;;;5056072;28;20128;-68
2022/12/26 09:59:00;;;;;;;17.05;3.40;;;8.10;99.90;;;;;;5054203;28;20047;-68
2022/12/26 10:01:33;;;;;;;6.95;2.58;;;8.00;99.90;;;;;;5054805;28;20491;-68
2022/12/26 10:04:00;;;;;;;12.60;3.35;;;7.80;99.90;;;;;;5041818;28;20165;-68
2022/12/26 10:06:35;;;;;;;15.10;3.55;;;7.80;99.90;;;;;;5038144;28;20409;-68
2022/12/26 10:09:28;;;;;;;15.48;3.40;;;7.80;99.90;;;;;;5071924;28;21271;-68
2022/12/26 10:12:08;;;;;;;14.45;3.47;;;7.70;99.90;;;;;;5058696;28;20037;-68
2022/12/26 10:14:54;;;;;;;16.67;3.58;;;7.70;99.90;;;;;;5079404;28;20036;-68
2022/12/26 10:17:39;;;;;;;14.77;3.08;;;7.70;99.90;;;;;;5056416;28;20235;-68
2022/12/26 10:20:36;;;;;;;14.15;3.10;;;7.70;99.90;;;;;;5058329;28;20094;-68
2022/12/26 10:23:11;;;;;;;14.55;3.40;;;7.80;99.90;;;;;;5037613;28;20049;-68
2022/12/26 10:25:45;;;;;;;;;;;7.80;99.90;;;;;;5044473;28;20072;-68
2022/12/26 10:28:38;;;;;;;13.00;3.05;;;7.80;99.90;;;;;;5061872;28;19946;-68
2022/12/26 10:31:21;;;;;;;12.43;2.85;;;7.80;99.90;;;;;;5037258;28;20086;-67
2022/12/26 10:34:06;;;;;;;14.70;3.15;;;7.90;99.90;;;;;;5054379;28;20049;-68
2022/12/26 10:36:42;;;;;;;11.55;2.78;;;7.80;99.90;;;;;;5058831;28;20158;-68
2022/12/26 10:39:33;;;;;;;13.93;3.10;;;7.80;99.90;;;;;;5044152;28;20774;-68
2022/12/26 10:42:07;;;;;;;13.15;2.92;;;7.80;99.90;;;;;;5061604;28;20057;-68
2022/12/26 10:44:33;;;;;;;11.23;2.88;;;7.70;99.90;;;;;;5076637;28;20048;-68
2022/12/26 10:47:23;;;;;;;8.13;2.58;;;7.70;99.90;;;;;;5057150;28;20055;-68
2022/12/26 10:49:48;;;;;;;16.50;2.63;;;7.70;99.90;;;;;;5076249;28;20427;-68
2022/12/26 10:52:16;;;;;;;7.85;2.40;;;7.70;99.90;;;;;;5056894;28;20075;-68
2022/12/26 10:54:45;;;;;;;10.95;2.65;;;7.60;99.90;;;;;;5062098;28;20162;-68
2022/12/26 10:57:11;;;;;;;11.05;2.90;;;7.60;99.90;;;;;;5054961;28;20055;-68
2022/12/26 10:59:43;;;;;;;12.77;2.80;;;7.60;99.90;;;;;;5073001;28;20376;-68
2022/12/26 11:02:28;;;;;;;11.52;2.70;;;7.60;99.90;;;;;;5042902;28;20040;-68
2022/12/26 11:05:11;;;;;;;10.18;2.65;;;7.60;99.90;;;;;;5053695;28;20044;-68
2022/12/26 11:07:44;;;;;;;10.95;2.47;;;7.60;99.90;;;;;;5042489;28;20101;-68
2022/12/26 11:10:18;;;;;;;16.85;3.10;;;7.60;99.90;;;;;;5042985;28;20128;-68
2022/12/26 11:12:53;;;;;;;8.73;2.60;;;7.60;99.90;;;;;;5054105;28;20122;-68
2022/12/26 11:15:47;;;;;;;11.77;2.67;;;7.60;99.90;;;;;;5040789;28;20075;-68
2022/12/26 11:18:14;;;;;;;13.02;2.22;;;7.60;99.90;;;;;;5052409;28;20045;-68
2022/12/26 11:20:40;;;;;;;9.32;2.30;;;7.60;99.90;;;;;;5041238;28;20068;-68
2022/12/26 11:23:27;;;;;;;9.20;2.10;;;7.60;99.90;;;;;;5031248;28;20163;-68
2022/12/26 11:25:59;;;;;;;8.23;2.67;;;7.60;99.90;;;;;;5072551;28;20080;-68
2022/12/26 11:28:34;;;;;;;12.45;2.67;;;7.60;99.90;;;;;;5051952;28;20098;-68
2022/12/26 11:31:04;;;;;;;10.10;2.53;;;7.60;99.90;;;;;;5051015;28;20072;-68
2022/12/26 11:33:41;;;;;;;10.30;2.50;;;7.60;99.90;;;;;;5053534;28;20045;-68
2022/12/26 11:36:19;;;;;;;11.43;2.70;;;7.50;99.90;;;;;;5052066;28;20052;-68
2022/12/26 11:39:00;;;;;;;10.82;2.47;;;7.50;99.90;;;;;;5038393;28;20451;-68
2022/12/26 11:41:32;;;;;;;8.90;2.35;;;7.50;99.90;;;;;;5055712;28;20411;-68
2022/12/26 11:44:03;;;;;;;11.75;2.85;;;7.50;99.90;;;;;;5041337;28;20074;-68
2022/12/26 11:46:37;;;;;;;10.15;2.13;;;7.50;99.90;;;;;;5046357;28;20082;-68
2022/12/26 11:49:04;;;;;;;13.02;2.63;;;7.50;99.90;;;;;;5058115;28;20085;-68
2022/12/26 11:51:40;;;;;;;9.60;2.55;;;7.60;99.90;;;;;;5057632;28;20037;-68
2022/12/26 11:54:28;;;;;;;12.05;2.55;;;7.60;99.90;;;;;;5040920;28;20036;-68
2022/12/26 11:57:09;;;;;;;16.30;2.83;;;7.60;99.90;;;;;;5058217;28;20048;-68
2022/12/26 11:59:35;;;;;;;10.77;2.47;;;7.60;99.90;;;;;;5056539;28;20040;-68
2022/12/26 12:02:19;;;;;;;11.65;2.97;;;7.60;99.90;;;;;;5040588;28;20401;-68
2022/12/26 12:04:47;;;;;;;11.93;3.10;;;7.60;99.90;;;;;;5055328;28;20441;-68
2022/12/26 12:07:21;;;;;;;11.77;2.72;;;7.60;99.90;;;;;;5055862;28;20128;-68
2022/12/26 12:09:57;;;;;;;16.10;2.88;;;7.60;99.90;;;;;;5046645;28;20045;-68
2022/12/26 12:12:31;;;;;;;10.80;2.70;;;7.60;99.90;;;;;;5055253;28;20032;-68
2022/12/26 12:14:56;;;;;;;;;;;7.60;99.90;;;;;;5062146;28;20044;-68
2022/12/26 12:17:34;;;;;;;13.07;2.88;;;7.60;99.90;;;;;;5062436;28;20292;-68
2022/12/26 12:20:02;;;;;;;11.57;2.90;;;7.60;99.90;;;;;;5042894;28;20377;-68
2022/12/26 12:22:45;;;;;;;13.88;2.88;;;7.60;99.90;;;;;;5057934;28;20378;-68
2022/12/26 12:25:37;;;;;;;14.02;3.08;;;7.70;99.90;;;;;;5077919;28;20044;-68
2022/12/26 12:28:24;;;;;;;12.93;2.90;;;7.70;99.90;;;;;;5058027;28;20037;-68
2022/12/26 12:31:14;;;;;;;10.70;2.92;;;7.80;99.90;;;;;;5042486;28;20102;-68
2022/12/26 12:34:08;;;;;;;11.93;2.80;;;7.80;99.90;;;;;;5059954;28;20116;-68
2022/12/26 12:36:55;;;;;;;14.85;3.22;;;7.80;99.90;;;;;;5027030;28;20079;-68
2022/12/26 12:39:45;;;;;;;13.07;2.70;;;7.80;99.90;;;;;;5047868;28;20637;-68
2022/12/26 12:42:42;;;;;;;10.25;2.47;;;7.80;99.90;;;;;;5075750;28;20053;-68
2022/12/26 12:45:17;;;;;;;11.35;3.28;;;7.80;99.90;;;;;;5003475;28;20060;-68
2022/12/26 12:48:31;;;;;;;10.70;2.55;;;7.80;99.90;;;;;;5004011;28;20517;-68
2022/12/26 12:51:27;;;;;;;10.77;3.17;;;7.70;99.90;;;;;;4949408;28;20049;-68
2022/12/26 12:54:20;;;;;;;10.52;2.80;;;7.60;99.90;;;;;;4947853;28;20054;-68
2022/12/26 12:57:08;;;;;;;12.70;2.97;;;7.60;99.90;;;;;;4953030;28;20505;-68
2022/12/26 12:59:51;;;;;;;13.68;2.97;;;7.50;99.90;;;;;;4949903;28;20580;-68
2022/12/26 13:02:28;;;;;;;16.42;2.88;;;7.60;99.90;;;;;;4954078;28;20519;-68
2022/12/26 13:05:04;;;;;;;11.95;3.03;;;7.60;99.90;;;;;;4951834;28;20038;-67
2022/12/26 13:07:35;;;;;;;15.88;3.22;;;7.50;99.90;;;;;;4935578;28;20049;-68
2022/12/26 13:10:12;;;;;;;16.00;3.40;;;7.50;99.90;;;;;;4937388;28;20039;-68
2022/12/26 13:12:40;;;;;;;13.63;3.10;;;7.40;99.90;;;;;;4950475;28;20042;-67
2022/12/26 13:15:28;;;;;;;16.25;3.35;;;7.40;99.90;;;;;;4958675;28;20055;-68
2022/12/26 13:18:08;;;;;;;13.25;3.22;;;7.30;99.90;;;;;;4962882;28;20671;-68
2022/12/26 13:20:59;;;;;;;9.18;2.65;;;7.30;99.90;;;;;;4957680;28;20125;-68
2022/12/26 13:26:25;;;;;;;16.30;3.08;;;7.30;99.90;;;;;;5067381;28;20131;-67
2022/12/26 13:29:12;;;;;;;11.82;2.90;;;7.30;99.90;;;;;;5066330;28;20495;-68
2022/12/26 13:31:39;;;;;;;15.82;2.88;;;7.30;99.90;;;;;;5078274;28;20400;-68
2022/12/26 13:34:10;;;;;;;10.85;3.00;;;7.30;99.90;;;;;;5061493;28;20094;-68
2022/12/26 13:36:42;;;;;;;14.20;3.40;;;7.20;99.90;;;;;;5064189;28;20036;-68
2022/12/26 13:39:26;;;;;;;11.57;2.78;;;7.20;99.90;;;;;;5064748;28;20400;-68
2022/12/26 13:44:36;;;;;;;9.35;2.70;;;7.30;99.90;;;;;;5061717;28;20138;-67
2022/12/26 13:47:01;;;;;;;11.27;2.97;;;7.30;99.90;;;;;;5063537;28;20531;-68
2022/12/26 13:49:39;;;;;;;12.35;2.97;;;7.30;99.90;;;;;;5061981;28;20033;-69
2022/12/26 13:52:11;;;;;;;16.25;2.85;;;7.10;99.90;;;;;;5049202;28;20037;-68
2022/12/26 13:55:05;;;;;;;14.18;3.45;;;6.90;99.90;;;;;;5046592;28;20793;-68
2022/12/26 13:57:38;;;;;;;12.93;2.50;;;6.80;99.90;;;;;;5030154;28;20476;-67
2022/12/26 14:00:24;;;;;;;18.77;3.35;;;6.70;99.90;;;;;;5048909;28;20432;-67
2022/12/26 14:02:57;;;;;;;14.68;3.25;;;6.70;99.90;;;;;;5065937;28;20044;-67
2022/12/26 14:05:43;;;;;;;15.27;2.80;;;6.70;99.90;;;;;;5062421;28;20083;-68
2022/12/26 14:08:32;;;;;;;14.18;2.92;;;6.70;99.90;;;;;;5064990;28;20040;-68
2022/12/26 14:11:13;;;;;;;14.38;3.13;;;6.70;99.90;;;;;;5046678;28;20651;-68
2022/12/26 14:14:07;;;;;;;12.57;2.95;;;6.60;99.90;;;;;;5064632;28;20071;-67
2022/12/26 14:16:57;;;;;;;12.90;2.70;;;6.60;99.90;;;;;;5065481;28;20040;-67
2022/12/26 14:19:38;;;;;;;13.82;3.17;;;6.50;99.90;;;;;;5042649;28;20048;-67
2022/12/26 14:22:50;;;;;;;15.25;3.20;;;6.50;99.90;;;;;;5060580;28;20064;-67
2022/12/26 14:25:43;;;;;;;8.73;2.70;;;6.50;99.90;;;;;;5023244;28;20400;-67
2022/12/26 14:28:36;;;;;;;15.60;2.92;;;6.40;99.90;;;;;;5048728;28;20440;-67
2022/12/26 14:31:13;;;;;;;12.07;3.78;;;6.30;99.90;;;;;;5062354;28;20044;-68
2022/12/26 14:33:50;;;;;;;13.73;3.20;;;6.30;99.90;;;;;;5047824;28;20530;-67
2022/12/26 14:36:24;;;;;;;15.57;2.95;;;6.30;99.90;;;;;;5055527;28;20045;-67
2022/12/26 14:39:34;;;;;;;14.63;2.95;;;6.20;99.90;;;;;;5060813;28;20453;-68
2022/12/26 14:44:58;;;;;;;11.63;2.92;;;6.10;99.90;;;;;;5069373;28;20059;-67
2022/12/26 14:47:44;;;;;;;12.93;3.53;;;6.20;99.90;;;;;;5055039;28;20045;-67
2022/12/26 14:50:31;;;;;;;14.65;3.28;;;6.10;99.90;;;;;;5058693;28;20032;-68
2022/12/26 14:53:19;;;;;;;13.63;2.70;;;6.20;99.90;;;;;;5076266;28;20044;-67
2022/12/26 14:55:51;;;;;;;12.25;3.00;;;6.20;99.90;;;;;;5059945;28;20534;-67
2022/12/26 14:58:31;;;;;;;12.52;2.83;;;6.20;99.90;;;;;;5044482;28;20059;-68
2022/12/26 15:01:20;;;;;;;15.43;3.30;;;6.10;99.90;;;;;;5061555;28;20045;-68
2022/12/26 15:03:48;;;;;;;18.00;3.22;;;6.10;99.90;;;;;;5043906;28;20033;-68
2022/12/26 15:06:17;;;;;;;18.05;2.95;;;6.00;99.90;;;;;;5059010;28;20052;-68
2022/12/26 15:09:04;;;;;;;14.85;3.88;;;5.90;99.90;;;;;;5043801;28;20059;-68
2022/12/26 15:11:51;;;;;;;18.90;3.03;;;5.90;99.90;;;;;;5060597;28;20032;-68
2022/12/26 15:14:39;;;;;;;13.90;2.67;;;5.80;99.90;;;;;;5059851;28;20040;-68
2022/12/26 15:17:23;;;;;;;9.50;2.58;;;5.80;99.90;;;;;;5060427;28;20040;-67
2022/12/26 15:20:25;;;;;;;8.73;2.95;;;5.80;99.90;;;;;;5043077;28;20071;-67
2022/12/26 15:23:10;;;;;;;13.27;3.17;;;5.80;99.90;;;;;;5057706;28;20075;-67
2022/12/26 15:25:46;;;;;;;12.52;3.15;;;5.80;99.90;;;;;;5060203;28;20101;-68
2022/12/26 15:28:14;;;;;;;16.80;2.92;;;5.70;99.90;;;;;;5041423;28;20480;-68